Time;durP1;ratioP1;P1;durP2;ratioP2;P2;SDS_P1;SDS_P2;PMS_P1;PMS_P2;Temp;Humidity;BMP_temperature;BMP_pressure;BME280_temperature;BME280_humidity;BME280_pressure;Samples;Min_cycle;Max_cycle;Signal;HPM_P1;HPM_P2
2023/05/26 00:02:06;;;;;;;0.65;0.65;;;;;;;13.85;100.00;100891.72;4915039;29;20250;-79
2023/05/26 00:04:34;;;;;;;0.10;0.10;;;;;;;13.74;100.00;100894.34;4905829;29;20263;-79
2023/05/26 00:07:02;;;;;;;0.13;0.13;;;;;;;13.69;100.00;100890.78;4913840;29;20242;-79
2023/05/26 00:09:29;;;;;;;0.20;0.20;;;;;;;13.63;100.00;100897.84;4914842;29;20231;-79
2023/05/26 00:11:57;;;;;;;0.10;0.10;;;;;;;13.59;100.00;100902.25;4909034;29;20250;-78
2023/05/26 00:14:24;;;;;;;0.20;0.20;;;;;;;13.55;100.00;100903.13;4907431;29;20234;-78
2023/05/26 00:16:53;;;;;;;0.20;0.20;;;;;;;13.59;100.00;100912.00;4905609;29;20293;-79
2023/05/26 00:19:21;;;;;;;0.10;0.10;;;;;;;13.51;100.00;100909.31;4907259;29;20678;-79
2023/05/26 00:21:48;;;;;;;0.20;0.20;;;;;;;13.49;100.00;100911.06;4916262;29;20250;-78
2023/05/26 00:24:16;;;;;;;0.20;0.20;;;;;;;13.49;100.00;100915.50;4913457;29;20234;-78
2023/05/26 00:26:43;;;;;;;0.20;0.20;;;;;;;13.45;100.00;100917.25;4917447;29;20227;-78
2023/05/26 00:29:10;;;;;;;0.20;0.20;;;;;;;13.45;100.00;100910.16;4916289;29;20239;-79
2023/05/26 00:31:55;;;;;;;0.10;0.10;;;;;;;13.34;100.00;100913.66;4920207;29;20235;-79
2023/05/26 00:34:23;;;;;;;0.10;0.10;;;;;;;13.29;100.00;100920.69;4912877;29;20239;-78
2023/05/26 00:36:50;;;;;;;0.20;0.20;;;;;;;13.31;100.00;100922.47;4914708;29;20239;-79
2023/05/26 00:39:18;;;;;;;0.17;0.17;;;;;;;13.25;100.00;100927.75;4938726;29;20297;-79
2023/05/26 00:41:45;;;;;;;0.10;0.10;;;;;;;13.23;100.00;100931.28;4915514;29;20227;-79
2023/05/26 00:44:13;;;;;;;0.20;0.20;;;;;;;13.20;100.00;100942.78;4913045;29;20253;-79
2023/05/26 00:46:40;;;;;;;0.20;0.20;;;;;;;13.21;100.00;100946.31;4914984;29;20270;-79
2023/05/26 00:49:08;;;;;;;0.30;0.30;;;;;;;13.23;100.00;100956.09;4918432;29;20243;-79
2023/05/26 00:51:36;;;;;;;0.20;0.20;;;;;;;13.22;100.00;100949.00;4916335;29;20708;-78
2023/05/26 00:54:05;;;;;;;0.10;0.10;;;12.80;99.90;;;13.11;100.00;100953.31;4915946;29;20244;-79
2023/05/26 00:56:35;;;;;;;0.20;0.20;;;;;;;13.01;100.00;100944.38;4913689;29;20227;-79
2023/05/26 00:59:03;;;;;;;0.10;0.10;;;12.80;99.90;;;13.03;100.00;100944.41;4914738;29;20238;-78
2023/05/26 01:01:32;;;;;;;0.10;0.10;;;12.80;99.90;;;13.05;100.00;100969.19;4919442;29;20231;-79
2023/05/26 01:04:00;;;;;;;0.20;0.20;;;;;;;12.89;100.00;100960.19;4911979;29;20264;-79
2023/05/26 01:06:27;;;;;;;0.28;0.28;;;;;;;12.89;100.00;100960.19;4915896;29;20232;-78
2023/05/26 01:08:55;;;;;;;0.20;0.20;;;;;;;12.89;100.00;100975.22;4915141;29;20254;-78
2023/05/26 01:11:32;;;;;;;0.30;0.30;;;12.60;99.90;;;12.82;100.00;100969.88;4898628;29;20246;-79
2023/05/26 01:14:15;;;;;;;0.40;0.40;;;12.10;99.90;;;12.91;100.00;100979.69;4909527;23;20253;-80
2023/05/26 01:16:53;;;;;;;1.58;1.48;;;12.60;99.90;;;12.89;100.00;100988.50;4918539;29;20238;-80
2023/05/26 01:19:54;;;;;;;0.40;0.40;;;12.60;99.90;;;12.79;100.00;100987.53;4914024;29;20254;-79
2023/05/26 01:22:51;;;;;;;0.22;0.22;;;12.50;99.90;;;12.73;100.00;100991.03;4908023;29;20322;-79
2023/05/26 01:25:33;;;;;;;0.20;0.20;;;12.50;99.90;;;12.76;100.00;101000.78;4909253;29;20238;-80
2023/05/26 01:28:12;;;;;;;0.20;0.20;;;12.50;99.90;;;12.71;100.00;101005.16;4908416;29;20270;-79
2023/05/26 01:30:41;;;;;;;0.40;0.40;;;;;;;12.72;100.00;101006.94;4906475;29;20270;-78
2023/05/26 01:33:08;;;;;;;1.10;0.65;;;;;;;12.68;100.00;101016.63;4910501;29;20242;-78
2023/05/26 01:35:36;;;;;;;0.38;0.38;;;;;;;12.68;100.00;101027.25;4905579;29;20263;-78
2023/05/26 01:38:04;;;;;;;0.40;0.40;;;;;;;12.59;100.00;101026.25;4913367;29;20239;-78
2023/05/26 01:40:32;;;;;;;0.35;0.35;;;;;;;12.68;100.00;101040.50;4906788;29;20238;-78
2023/05/26 01:43:27;;;;;;;0.77;0.77;;;12.40;99.90;;;12.49;100.00;101034.13;4907199;29;20239;-78
2023/05/26 01:46:30;;;;;;;0.45;0.45;;;12.30;99.90;;;12.51;100.00;101039.44;4903781;29;20235;-78
2023/05/26 01:49:00;;;;;;;0.30;0.30;;;12.20;99.90;;;12.47;100.00;101041.19;4891996;29;20251;-78
2023/05/26 01:51:34;;;;;;;0.32;0.32;;;12.20;99.90;;;12.44;100.00;101042.91;4908866;29;20241;-80
2023/05/26 01:54:07;;;;;;;0.50;0.50;;;12.20;99.90;;;12.43;100.00;101051.75;4907631;29;20247;-77
2023/05/26 01:56:35;;;;;;;0.40;0.40;;;;;;;12.42;100.00;101061.47;4904396;29;20239;-78
2023/05/26 01:59:03;;;;;;;0.30;0.30;;;;;;;12.41;100.00;101056.13;4912324;29;20246;-78
2023/05/26 02:01:33;;;;;;;0.30;0.30;;;;;;;12.43;100.00;101076.50;4903404;29;20230;-78
2023/05/26 02:04:01;;;;;;;0.10;0.10;;;;;;;12.35;100.00;101083.47;4906340;29;20235;-78
2023/05/26 02:06:29;;;;;;;0.65;0.45;;;;;;;12.42;100.00;101082.69;4901922;29;20232;-77
2023/05/26 02:08:57;;;;;;;0.10;0.10;;;;;;;12.38;100.00;101075.56;4906366;29;20245;-77
2023/05/26 02:11:25;;;;;;;0.28;0.28;;;;;;;12.37;100.00;101084.38;4903681;29;20628;-78
2023/05/26 02:13:52;;;;;;;0.20;0.20;;;;;;;12.33;100.00;101085.22;4905967;29;20236;-78
2023/05/26 02:16:21;;;;;;;1.75;0.82;;;;;;;12.39;100.00;101100.31;4905566;29;20267;-78
2023/05/26 02:18:49;;;;;;;0.60;0.60;;;;;;;12.30;100.00;101094.91;4906382;29;20239;-79
2023/05/26 02:21:16;;;;;;;0.47;0.47;;;;;;;12.31;100.00;101105.53;4908667;29;20241;-77
2023/05/26 02:23:44;;;;;;;0.50;0.50;;;;;;;12.31;100.00;101096.69;4909348;29;20239;-77
2023/05/26 02:26:12;;;;;;;0.50;0.50;;;;;;;12.21;100.00;101111.59;4908422;29;20243;-78
2023/05/26 02:28:39;;;;;;;0.75;0.75;;;;;;;12.17;100.00;101108.00;4904710;29;20231;-77
2023/05/26 02:31:07;;;;;;;0.50;0.50;;;;;;;12.14;100.00;101109.72;4906569;29;20258;-78
2023/05/26 02:33:38;;;;;;;0.82;0.82;;;;;;;12.21;100.00;101119.56;4902862;29;20298;-78
2023/05/26 02:36:07;;;;;;;0.25;0.25;;;;;;;12.13;100.00;101115.91;4907858;29;20239;-77
2023/05/26 02:38:34;;;;;;;0.32;0.32;;;;;;;12.10;100.00;101116.75;4908207;29;20235;-77
2023/05/26 02:41:02;;;;;;;0.40;0.40;;;;;;;12.12;100.00;101128.28;4902190;29;20286;-77
2023/05/26 02:43:29;;;;;;;0.45;0.45;;;;;;;12.02;100.00;101128.13;4902701;29;20242;-77
2023/05/26 02:45:57;;;;;;;0.40;0.40;;;;;;;12.03;100.00;101132.56;4907616;29;20298;-78
2023/05/26 02:48:24;;;;;;;0.30;0.30;;;;;;;12.00;100.00;101136.06;4911637;29;20290;-77
2023/05/26 02:50:54;;;;;;;0.50;0.50;;;;;;;11.99;100.00;101130.72;4911775;29;20235;-77
2023/05/26 02:53:22;;;;;;;0.90;0.90;;;;;;;11.96;100.00;101138.63;4904122;29;20251;-78
2023/05/26 02:55:50;;;;;;;0.65;0.60;;;;;;;12.00;100.00;101146.66;4897723;29;20247;-78
2023/05/26 02:58:17;;;;;;;0.38;0.38;;;;;;;11.95;100.00;101147.47;4905102;29;20239;-79
2023/05/26 03:00:45;;;;;;;0.47;0.47;;;;;;;11.93;100.00;101142.13;4905386;29;20245;-77
2023/05/26 03:03:13;;;;;;;0.55;0.55;;;;;;;11.95;100.00;101153.66;4905567;29;20255;-78
2023/05/26 03:05:41;;;;;;;0.30;0.30;;;;;;;11.94;100.00;101154.53;4899383;29;20600;-78
2023/05/26 03:08:08;;;;;;;0.40;0.40;;;;;;;11.84;100.00;101158.78;4908989;29;20312;-77
2023/05/26 03:10:36;;;;;;;0.30;0.30;;;;;;;11.83;100.00;101162.31;4899952;29;20239;-78
2023/05/26 03:13:03;;;;;;;0.55;0.52;;;;;;;11.72;100.00;101153.28;4905690;29;20243;-77
2023/05/26 03:15:35;;;;;;;0.40;0.40;;;11.40;99.90;;;11.69;100.00;101160.25;4906602;29;20242;-77
2023/05/26 03:18:02;;;;;;;0.43;0.43;;;;;;;11.70;100.00;101167.31;4909652;29;20243;-78
2023/05/26 03:20:30;;;;;;;0.40;0.40;;;;;;;11.69;100.00;101174.38;4906745;29;20231;-77
2023/05/26 03:22:58;;;;;;;0.40;0.40;;;;;;;11.73;100.00;101180.66;4908953;28;20243;-78
2023/05/26 03:25:25;;;;;;;0.30;0.30;;;;;;;11.67;100.00;101183.19;4907678;29;20235;-77
2023/05/26 03:27:53;;;;;;;0.50;0.50;;;;;;;11.65;100.00;101190.19;4897817;29;20246;-78
2023/05/26 03:30:20;;;;;;;0.50;0.50;;;;;;;11.61;100.00;101186.63;4909265;29;20615;-77
2023/05/26 03:32:47;;;;;;;0.65;0.65;;;;;;;11.60;100.00;101192.78;4908508;29;20231;-78
2023/05/26 03:35:15;;;;;;;0.85;0.85;;;;;;;11.54;100.00;101196.22;4906205;29;20234;-77
2023/05/26 03:37:42;;;;;;;0.52;0.52;;;;;;;11.55;100.00;101197.09;4907195;29;20318;-78
2023/05/26 03:40:10;;;;;;;0.60;0.60;;;;;;;11.53;100.00;101207.69;4909166;29;20231;-78
2023/05/26 03:42:37;;;;;;;0.90;0.90;;;;;;;11.50;100.00;101210.28;4901613;29;20242;-78
2023/05/26 03:45:05;;;;;;;0.50;0.50;;;;;;;11.53;100.00;101218.28;4903480;29;20234;-78
2023/05/26 03:47:33;;;;;;;0.20;0.20;;;;;;;11.50;100.00;101220.88;4890269;29;20250;-78
2023/05/26 03:50:00;;;;;;;0.60;0.60;;;;;;;11.53;100.00;101223.56;4909016;28;20231;-78
2023/05/26 03:52:32;;;;;;;0.40;0.40;;;;;;;11.43;100.00;101231.31;4909174;29;20254;-77
2023/05/26 03:55:00;;;;;;;0.40;0.40;;;;;;;11.46;100.00;101241.97;4903839;29;20231;-78
2023/05/26 03:57:27;;;;;;;0.40;0.40;;;;;;;11.68;100.00;101259.16;4907364;29;20250;-78
2023/05/26 03:59:55;;;;;;;0.60;0.60;;;;;;;11.58;100.00;101257.19;4907338;29;20234;-78
2023/05/26 04:02:22;;;;;;;0.52;0.52;;;;;;;11.43;100.00;101257.81;4911473;29;20589;-78
2023/05/26 04:04:50;;;;;;;0.68;0.68;;;;;;;11.48;100.00;101262.31;4906303;29;20243;-77
2023/05/26 04:07:17;;;;;;;0.80;0.80;;;;;;;11.47;100.00;101270.25;4906811;29;20235;-78
2023/05/26 04:09:44;;;;;;;0.50;0.50;;;;;;;11.49;100.00;101279.13;4910580;29;20245;-77
2023/05/26 04:12:12;;;;;;;0.63;0.63;;;;;;;11.52;100.00;101290.66;4906506;29;20245;-78
2023/05/26 04:14:39;;;;;;;0.60;0.60;;;;;;;11.52;100.00;101287.13;4905955;29;20246;-78
2023/05/26 04:17:07;;;;;;;0.50;0.50;;;;;;;11.51;100.00;101295.94;4910627;29;20242;-78
2023/05/26 04:19:34;;;;;;;0.65;0.65;;;;;;;11.52;100.00;101295.06;4909709;29;20231;-77
2023/05/26 04:22:02;;;;;;;0.60;0.60;;;;;;;11.53;100.00;101299.50;4908636;29;20237;-78
2023/05/26 04:24:29;;;;;;;0.70;0.70;;;;;;;11.52;100.00;101301.25;4909241;29;20250;-77
2023/05/26 04:26:57;;;;;;;0.65;0.65;;;;;;;11.53;100.00;101304.78;4908169;29;20243;-78
2023/05/26 04:29:25;;;;;;;0.70;0.70;;;;;;;11.51;100.00;101299.47;4904865;29;20227;-79
2023/05/26 04:31:53;;;;;;;0.73;0.73;;;;;;;11.56;100.00;101318.09;4909211;29;20232;-77
2023/05/26 04:34:21;;;;;;;1.38;1.20;;;;;;;11.65;100.00;101315.63;4909471;29;20298;-79
2023/05/26 04:36:49;;;;;;;0.60;0.60;;;;;;;11.68;100.00;101326.28;4906660;29;20259;-78
2023/05/26 04:39:16;;;;;;;0.40;0.40;;;;;;;11.71;100.00;101326.38;4905265;29;20235;-78
2023/05/26 04:41:46;;;;;;;0.73;0.73;;;;;;;11.75;100.00;101328.22;5019491;23;20226;-79
2023/05/26 04:44:13;;;;;;;0.50;0.50;;;;;;;11.74;100.00;101322.88;4933498;28;20340;-79
2023/05/26 04:46:41;;;;;;;0.40;0.40;;;;;;;11.83;100.00;101329.28;4936577;29;20234;-78
2023/05/26 04:49:08;;;;;;;0.60;0.60;;;;;;;11.87;100.00;101340.84;4931370;29;20249;-78
2023/05/26 04:51:36;;;;;;;0.40;0.40;;;;;;;11.88;100.00;101337.31;4936940;29;20246;-78
2023/05/26 04:54:03;;;;;;;0.50;0.50;;;;;;;11.90;100.00;101345.28;4934570;29;20243;-80
2023/05/26 04:56:31;;;;;;;0.50;0.50;;;;;;;11.96;100.00;101345.41;4930943;29;20746;-78
2023/05/26 04:58:58;;;;;;;0.63;0.63;;;;;;;12.00;100.00;101352.53;4937150;29;20300;-78
2023/05/26 05:01:26;;;;;;;0.50;0.50;;;;;;;12.02;100.00;101357.00;4930682;29;20294;-79
2023/05/26 05:03:54;;;;;;;0.60;0.60;;;;;;;12.15;100.00;101363.41;4936965;29;20235;-82
2023/05/26 05:06:21;;;;;;;0.60;0.60;;;;;;;12.14;100.00;101357.22;4935131;29;20242;-79
2023/05/26 05:08:49;;;;;;;0.80;0.80;;;;;;;12.12;100.00;101358.06;4935338;29;20605;-80
2023/05/26 05:11:16;;;;;;;0.70;0.70;;;;;;;12.20;100.00;101368.81;4935980;28;20245;-80
2023/05/26 05:13:44;;;;;;;1.17;1.10;;;;;;;12.22;100.00;101360.00;4937628;29;20237;-79
2023/05/26 05:16:11;;;;;;;0.98;0.85;;;;;;;12.29;100.00;101366.31;4937926;29;20245;-81
2023/05/26 05:18:39;;;;;;;0.95;0.95;;;;;;;12.40;100.00;101378.88;4940765;29;20273;-81
2023/05/26 05:21:06;;;;;;;0.70;0.50;;;;;;;12.38;100.00;101382.38;4938130;29;20238;-82
2023/05/26 05:23:34;;;;;;;0.30;0.30;;;;;;;12.50;100.00;101380.81;4943538;29;20242;-82
2023/05/26 05:26:02;;;;;;;0.40;0.40;;;;;;;12.57;100.00;101381.81;4940084;29;20234;-81
2023/05/26 05:28:30;;;;;;;0.20;0.20;;;;;;;12.70;100.00;101386.44;4945614;29;20230;-82
2023/05/26 05:30:58;;;;;;;0.35;0.35;;;;;;;12.78;100.00;101389.22;4930250;29;20238;-82
2023/05/26 05:33:27;;;;;;;0.47;0.47;;;12.50;99.90;;;12.89;100.00;101384.06;4931982;29;20238;-82
2023/05/26 05:35:55;;;;;;;0.30;0.30;;;;;;;12.80;100.00;101375.09;4936909;28;20257;-82
2023/05/26 05:38:22;;;;;;;0.43;0.43;;;;;;;12.85;100.00;101366.31;4937764;29;20266;-81
2023/05/26 05:40:50;;;;;;;0.30;0.30;;;;;;;13.00;100.00;101372.75;4926065;28;20239;-82
2023/05/26 05:43:17;;;;;;;1.15;1.15;;;;;;;13.04;100.00;101374.59;4929796;29;20234;-82
2023/05/26 05:45:45;;;;;;;0.45;0.45;;;;;;;13.09;100.00;101367.56;4934234;29;20237;-81
2023/05/26 05:48:12;;;;;;;0.50;0.50;;;;;;;13.11;100.00;101349.91;4936601;29;20234;-82
2023/05/26 05:50:40;;;;;;;0.30;0.30;;;;;;;13.23;100.00;101343.88;4936388;29;20266;-82
2023/05/26 05:53:07;;;;;;;0.30;0.30;;;;;;;13.34;100.00;101354.63;4937288;29;20305;-82
2023/05/26 05:55:34;;;;;;;0.30;0.30;;;;;;;13.27;100.00;101336.84;4914771;29;20245;-81
2023/05/26 05:58:02;;;;;;;0.30;0.30;;;;;;;13.32;100.00;101332.47;4933521;29;20237;-82
2023/05/26 06:00:29;;;;;;;0.38;0.38;;;;;;;13.39;100.00;101334.34;4934163;29;20234;-81
2023/05/26 06:02:57;;;;;;;0.40;0.40;;;;;;;13.51;100.00;101339.78;4928113;29;20294;-82
2023/05/26 06:05:25;;;;;;;0.30;0.30;;;;;;;13.58;100.00;101333.66;4933785;29;20253;-82
2023/05/26 06:07:52;;;;;;;0.30;0.30;;;;;;;13.65;100.00;101334.63;4935151;29;20326;-82
2023/05/26 06:10:20;;;;;;;0.30;0.30;;;;;;;13.81;100.00;101335.69;4928430;29;20255;-82
2023/05/26 06:12:47;;;;;;;0.30;0.30;;;;;;;13.78;100.00;101334.75;4933277;29;20309;-82
2023/05/26 06:15:17;;;;;;;0.50;0.50;;;;;;;13.89;100.00;101337.53;4926416;29;20345;-82
2023/05/26 06:17:44;;;;;;;0.40;0.40;;;;;;;13.86;100.00;101324.22;4929299;29;20230;-81
2023/05/26 06:20:12;;;;;;;0.40;0.40;;;13.60;99.90;;;13.91;100.00;101309.19;4932533;28;20242;-82
2023/05/26 06:22:40;;;;;;;0.25;0.25;;;;;;;14.15;100.00;101308.50;4934719;28;20649;-82
2023/05/26 06:25:08;;;;;;;0.35;0.35;;;;;;;14.33;100.00;101307.81;4938903;28;20238;-81
2023/05/26 06:27:35;;;;;;;0.40;0.40;;;;;;;14.26;100.00;101282.88;4929707;29;20326;-81
2023/05/26 06:30:03;;;;;;;0.40;0.40;;;15.10;99.90;;;14.28;100.00;101270.47;4936968;29;20241;-80
2023/05/26 06:32:30;;;;;;;0.40;0.40;;;14.00;99.90;;;14.20;100.00;101260.66;4938059;29;20234;-80
2023/05/26 06:34:58;;;;;;;0.40;0.40;;;;;;;14.40;100.00;101254.63;4933929;29;20266;-81
2023/05/26 06:37:25;;;;;;;0.80;0.80;;;;;;;14.35;100.00;101248.38;4933191;29;20226;-80
2023/05/26 06:39:52;;;;;;;0.70;0.70;;;;;;;14.64;100.00;101245.03;4937780;29;20238;-80
2023/05/26 06:42:20;;;;;;;1.30;1.02;;;;;;;14.62;100.00;101237.06;4924801;29;20245;-80
2023/05/26 06:44:47;;;;;;;1.85;1.05;;;;;;;14.93;100.00;101239.84;4932694;29;20227;-82
2023/05/26 06:47:23;;;;;;;0.43;0.43;;;;;;;14.93;100.00;101224.75;4935573;29;20230;-81
2023/05/26 06:49:51;;;;;;;0.82;0.82;;;;;;;14.90;100.00;101208.78;4931734;29;20234;-80
2023/05/26 06:52:19;;;;;;;1.30;1.30;;;;;;;14.95;100.00;101198.13;4934785;29;20226;-79
2023/05/26 06:54:46;;;;;;;0.93;0.93;;;;;;;15.11;100.00;101193.75;4929945;29;20321;-77
2023/05/26 06:57:14;;;;;;;0.32;0.32;;;;;;;15.21;100.00;101184.88;4932995;29;20238;-78
2023/05/26 06:59:44;;;;;;;0.60;0.60;;;14.80;99.90;;;15.26;100.00;101170.69;4931440;29;20242;-77
2023/05/26 07:02:11;;;;;;;0.30;0.30;;;;;;;15.33;100.00;101164.47;4934129;29;20234;-81
2023/05/26 07:04:39;;;;;;;0.40;0.40;;;;;;;15.49;100.00;101152.03;4933161;29;20305;-81
2023/05/26 07:07:06;;;;;;;0.40;0.40;;;;;;;15.58;100.00;101133.41;4933855;29;20246;-81
2023/05/26 07:09:34;;;;;;;0.50;0.50;;;;;;;15.54;100.00;101112.06;4932906;29;20234;-84
2023/05/26 07:12:01;;;;;;;0.30;0.30;;;;;;;15.74;100.00;101112.09;4934346;29;20234;-81
2023/05/26 07:14:29;;;;;;;0.77;0.55;;;;;;;16.00;100.00;101129.84;4927235;29;20243;-84
2023/05/26 07:16:56;;;;;;;0.70;0.68;;;;;;;16.14;100.00;101127.13;5022957;23;20250;-80
2023/05/26 07:19:24;;;;;;;0.43;0.43;;;;;;;15.89;100.00;101077.41;4920355;29;20230;-79
2023/05/26 07:21:51;;;;;;;0.30;0.30;;;;;;;16.05;100.00;101092.47;4922951;29;20246;-79
2023/05/26 07:24:19;;;;;;;0.47;0.47;;;;;;;16.40;100.00;101105.69;4925653;29;20231;-79
2023/05/26 07:26:46;;;;;;;0.63;0.63;;;;;;;16.32;100.00;101094.16;4925495;29;20235;-78
2023/05/26 07:29:14;;;;;;;0.68;0.68;;;;;;;16.31;100.00;101058.56;4927867;29;20234;-79
2023/05/26 07:31:41;;;;;;;0.40;0.40;;;;;;;16.54;100.00;101063.78;4929874;29;20309;-77
2023/05/26 07:34:10;;;;;;;0.30;0.30;;;;;;;16.42;100.00;101029.16;4928799;29;20357;-78
2023/05/26 07:36:37;;;;;;;0.65;0.65;;;;;;;16.42;100.00;101009.59;4919697;29;20314;-78
2023/05/26 07:39:06;;;;;;;0.20;0.20;;;;;;;16.77;100.00;101014.72;4921726;29;20226;-77
2023/05/26 07:41:35;;;;;;;0.40;0.40;;;16.40;99.90;;;16.79;100.00;101031.63;4919990;29;20265;-77
2023/05/26 07:44:03;;;;;;;0.40;0.40;;;;;;;16.79;100.00;100976.41;4922434;29;20297;-76
2023/05/26 07:46:30;;;;;;;0.45;0.45;;;;;;;17.11;100.00;100967.28;4926660;28;20241;-77
2023/05/26 07:48:57;;;;;;;0.52;0.52;;;;;;;16.89;100.00;100940.72;4921386;29;20234;-79
2023/05/26 07:51:25;;;;;;;0.85;0.85;;;;;;;17.14;100.00;100975.28;4921233;29;20231;-79
2023/05/26 07:53:52;;;;;;;0.88;0.88;;;;;;;16.98;100.00;100918.41;4922694;29;20242;-78
2023/05/26 07:56:20;;;;;;;0.50;0.50;;;;;;;17.10;100.00;100926.31;4920478;29;20227;-80
2023/05/26 07:58:47;;;;;;;0.30;0.30;;;;;;;17.39;100.00;100949.19;4922537;29;20239;-78
2023/05/26 08:01:15;;;;;;;0.30;0.30;;;;;;;17.28;100.00;100917.22;4925349;28;20242;-80
2023/05/26 08:03:42;;;;;;;0.30;0.30;;;;;;;17.44;100.00;100902.78;4926072;28;20241;-78
2023/05/26 08:06:10;;;;;;;0.50;0.50;;;;;;;17.29;100.00;100873.53;4921325;29;20316;-80
2023/05/26 08:08:53;;;;;;;0.43;0.43;;;;;;;17.44;100.00;100870.69;4924736;29;20321;-78
2023/05/26 08:11:23;;;;;;;1.67;1.27;;;;;;;17.34;100.00;100862.78;4924311;29;20237;-79
2023/05/26 08:13:50;;;;;;;0.60;0.60;;;;;;;18.00;100.00;100895.84;4921746;29;20245;-78
2023/05/26 08:16:18;;;;;;;0.70;0.70;;;;;;;17.90;100.00;100862.09;4915731;29;20238;-76
2023/05/26 08:18:45;;;;;;;0.95;0.95;;;;;;;17.95;100.00;100828.13;4922681;28;20238;-76
2023/05/26 08:21:13;;;;;;;0.47;0.47;;;;;;;17.94;100.00;100823.66;4918920;29;20239;-76
2023/05/26 08:23:41;;;;;;;0.60;0.60;;;;;;;17.99;100.00;100805.75;4920373;29;20249;-77
2023/05/26 08:26:09;;;;;;;0.30;0.30;;;;;;;18.14;100.00;100818.91;4920183;28;20241;-77
2023/05/26 08:28:36;;;;;;;0.45;0.45;;;;;;;18.22;100.00;100819.69;4922220;29;20253;-78
2023/05/26 08:31:05;;;;;;;0.30;0.30;;;;;;;18.39;100.00;100822.09;4918180;29;20239;-77
2023/05/26 08:33:33;;;;;;;1.60;1.25;;;;;;;18.32;100.00;100784.72;4913440;29;20242;-76
2023/05/26 08:36:00;;;;;;;0.30;0.30;;;;;;;18.60;100.00;100807.44;4920958;29;20242;-76
2023/05/26 08:38:30;;;;;;;0.28;0.28;;;;;;;18.69;100.00;100793.91;4916713;29;20259;-76
2023/05/26 08:41:01;;;;;;;0.60;0.60;;;18.20;99.90;;;18.54;100.00;100756.66;4917262;29;20666;-77
2023/05/26 08:43:45;;;;;;;0.38;0.38;;;18.30;99.90;;;18.47;100.00;100707.69;4914850;29;20265;-77
2023/05/26 08:46:26;;;;;;;0.68;0.50;;;18.10;99.90;;;18.61;100.00;100739.59;4920434;29;20317;-77
2023/05/26 08:48:54;;;;;;;0.20;0.20;;;18.30;99.90;;;18.62;100.00;100730.66;4926044;29;20242;-77
2023/05/26 08:51:21;;;;;;;0.30;0.30;;;;;;;18.81;100.00;100734.72;4924172;29;20238;-77
2023/05/26 08:53:49;;;;;;;0.40;0.40;;;;;;;19.37;100.00;100797.00;4928364;29;20234;-77
2023/05/26 08:56:17;;;;;;;0.50;0.50;;;;;;;19.24;100.00;100733.84;4918004;29;20234;-77
2023/05/26 08:58:45;;;;;;;0.40;0.40;;;;;;;19.17;100.00;100714.31;4922975;29;20234;-77
2023/05/26 09:01:12;;;;;;;0.88;0.88;;;;;;;19.06;100.00;100672.56;4922252;29;20253;-77
2023/05/26 09:03:40;;;;;;;0.30;0.30;;;;;;;19.20;100.00;100654.38;4917457;29;20269;-78
2023/05/26 09:06:08;;;;;;;0.68;0.68;;;;;;;19.71;100.00;100665.75;4933080;29;20237;-79
2023/05/26 09:08:36;;;;;;;0.40;0.40;;;;;;;19.64;100.00;100626.56;4923370;29;20325;-78
2023/05/26 09:11:25;;;;;;;0.35;0.35;;;19.10;99.90;;;19.57;100.00;100637.47;4923069;29;20264;-78
2023/05/26 09:13:57;;;;;;;0.30;0.30;;;19.40;99.90;;;19.79;100.00;100641.38;4924230;28;20238;-78
2023/05/26 09:16:26;;;;;;;0.50;0.50;;;19.50;99.90;;;19.93;100.00;100627.63;4927709;28;20241;-82
2023/05/26 09:18:58;;;;;;;0.30;0.30;;;19.60;99.90;;;20.18;100.00;100647.50;4931476;29;20234;-83
2023/05/26 09:21:27;;;;;;;0.50;0.50;;;19.80;99.90;;;20.06;100.00;100602.22;4927243;28;20244;-84
2023/05/26 09:23:59;;;;;;;0.10;0.10;;;19.50;99.90;;;19.69;100.00;100473.50;4934776;28;20242;-80
2023/05/26 09:26:30;;;;;;;0.52;0.52;;;19.70;99.90;;;20.29;100.00;100555.91;4926627;29;20234;-80
2023/05/26 09:28:58;;;;;;;0.77;0.68;;;20.10;99.90;;;20.29;100.00;100563.97;4932422;29;20252;-82
2023/05/26 09:31:45;;;;;;;0.17;0.17;;;;;;;20.47;100.00;100557.22;4928654;29;20238;-80
2023/05/26 09:34:15;;;;;;;0.47;0.47;;;20.10;99.90;;;20.48;100.00;100522.25;4925807;28;20241;-82
2023/05/26 09:36:43;;;;;;;0.40;0.40;;;;;;;20.43;100.00;100486.56;4925686;29;20244;-82
2023/05/26 09:39:12;;;;;;;0.25;0.25;;;20.40;99.90;;;20.90;100.00;100536.19;4928112;29;20257;-81
2023/05/26 09:41:45;;;;;;;0.38;0.32;;;20.60;99.90;;;21.04;100.00;100538.44;4922551;29;20242;-79
2023/05/26 09:44:14;;;;;;;0.30;0.30;;;20.50;99.90;;;20.93;100.00;100485.00;4925288;29;20233;-80
2023/05/26 09:46:44;;;;;;;0.40;0.40;;;20.50;99.90;;;21.01;100.00;100511.66;4922959;29;20273;-80
2023/05/26 09:49:17;;;;;;;0.70;0.70;;;20.60;99.90;;;20.95;100.00;100501.09;4928174;29;20238;-81
2023/05/26 09:51:49;;;;;;;0.63;0.47;;;20.70;99.90;;;20.83;100.00;100378.72;4928550;29;20238;-79
2023/05/26 09:54:36;;;;;;;0.50;0.50;;;;;;;20.75;100.00;100322.50;4923942;29;20245;-80
2023/05/26 09:57:12;;;;;;;0.28;0.28;;;20.70;99.90;;;21.22;100.00;100359.44;4928348;29;20234;-79
2023/05/26 09:59:44;;;;;;;0.40;0.40;;;;;;;21.55;100.00;100378.88;4927925;29;20246;-80
2023/05/26 10:02:23;;;;;;;0.57;0.57;;;21.20;99.90;;;21.48;100.00;100398.88;4929494;29;20245;-80
2023/05/26 10:04:52;;;;;;;0.30;0.30;;;21.30;99.90;;;21.63;100.00;100366.91;4928429;29;20237;-80
2023/05/26 10:07:21;;;;;;;0.22;0.22;;;21.50;99.90;;;21.83;100.00;100368.84;4927853;28;20332;-81
2023/05/26 10:09:53;;;;;;;0.20;0.20;;;21.40;99.90;;;21.84;100.00;100365.22;4924036;29;20315;-80
2023/05/26 10:12:27;;;;;;;0.20;0.20;;;21.50;99.90;;;21.74;100.00;100293.81;4928776;29;20233;-79
2023/05/26 10:14:55;;;;;;;0.30;0.30;;;;;;;21.88;100.00;100266.34;4931222;29;20233;-81
2023/05/26 10:17:23;;;;;;;0.40;0.40;;;;;;;21.54;100.00;100122.38;4934692;28;20546;-80
2023/05/26 10:19:55;;;;;;;0.30;0.30;;;21.70;99.90;;;22.23;100.00;100219.19;4931648;29;20242;-80
2023/05/26 10:22:38;;;;;;;0.20;0.20;;;22.00;99.90;;;22.22;100.00;100223.72;4934854;29;20234;-79
2023/05/26 10:25:49;;;;;;;0.40;0.40;;;22.10;99.90;;;22.63;100.00;100250.69;4954268;28;20292;-80
2023/05/26 10:28:34;;;;;;;0.10;0.10;;;22.00;99.90;;;22.22;100.00;100113.28;4931083;29;20234;-81
2023/05/26 10:31:02;;;;;;;0.30;0.30;;;;;;;21.92;100.00;99986.19;4928577;29;20320;-81
2023/05/26 10:33:49;;;;;;;0.10;0.10;;;22.00;99.90;;;22.55;100.00;100081.25;4926671;29;20278;-80
2023/05/26 10:36:18;;;;;;;0.10;0.10;;;22.20;99.90;;;22.41;100.00;100010.94;4931710;29;20238;-80
2023/05/26 10:38:51;;;;;;;0.32;0.32;;;22.10;99.90;;;22.22;100.00;99916.66;4929758;29;20276;-80
2023/05/26 10:41:39;;;;;;;0.75;0.75;;;22.30;99.90;;;22.94;100.00;100080.38;4929694;29;20284;-79
2023/05/26 10:44:07;;;;;;;0.03;0.03;;;;;;;22.97;100.00;100051.44;4932339;29;20238;-80
2023/05/26 10:46:46;;;;;;;0.35;0.35;;;23.20;99.90;;;23.37;100.00;100022.50;4930587;28;20233;-80
2023/05/26 10:49:22;;;;;;;0.30;0.30;;;22.90;99.90;;;22.73;100.00;99887.25;4932017;28;20332;-80
2023/05/26 10:51:53;;;;;;;0.88;0.40;;;22.50;99.90;;;22.92;100.00;99893.50;4929570;29;20243;-79
2023/05/26 10:54:24;;;;;;;0.50;0.50;;;22.40;99.90;;;22.66;100.00;99779.75;4927272;28;20234;-79
2023/05/26 10:56:54;;;;;;;0.65;0.65;;;;;;;23.25;100.00;99899.00;4931029;29;20233;-79
2023/05/26 10:59:31;;;;;;;0.20;0.20;;;23.10;99.90;;;23.16;100.00;99830.22;4931654;29;20237;-79
2023/05/26 11:02:07;;;;;;;0.10;0.10;;;22.90;99.90;;;23.30;100.00;99894.25;4933033;28;20245;-80
2023/05/26 11:04:49;;;;;;;0.10;0.10;;;23.30;99.90;;;23.48;100.00;99868.16;4927986;29;20248;-80
2023/05/26 11:07:24;;;;;;;0.70;0.20;;;;;;;23.68;100.00;99902.22;4930442;29;20297;-80
2023/05/26 11:10:01;;;;;;;0.57;0.57;;;23.60;99.90;;;23.96;100.00;99886.28;4930218;28;20260;-80
2023/05/26 11:12:36;;;;;;;0.15;0.15;;;23.60;99.90;;;23.77;100.00;99831.53;4932628;29;20235;-80